sensor_id;sensor_type;location;lat;lon;timestamp;pressure;altitude;pressure_sealevel;temperature;humidity
85315;BME280;75718;50.886;11.656;2024-01-16T00:00:22;97450.97;;;1.45;70.36
85315;BME280;75718;50.886;11.656;2024-01-16T00:02:47;97457.91;;;1.42;70.37
85315;BME280;75718;50.886;11.656;2024-01-16T00:05:12;97455.97;;;1.51;69.78
85315;BME280;75718;50.886;11.656;2024-01-16T00:07:39;97453.44;;;1.50;69.32
85315;BME280;75718;50.886;11.656;2024-01-16T00:10:04;97449.91;;;1.54;69.59
85315;BME280;75718;50.886;11.656;2024-01-16T00:12:32;97463.75;;;1.50;70.23
85315;BME280;75718;50.886;11.656;2024-01-16T00:14:57;97455.22;;;1.48;69.93
85315;BME280;75718;50.886;11.656;2024-01-16T00:17:22;97469.97;;;1.41;69.72
85315;BME280;75718;50.886;11.656;2024-01-16T00:19:47;97469.84;;;1.47;69.20
85315;BME280;75718;50.886;11.656;2024-01-16T00:22:13;97467.16;;;1.52;69.55
85315;BME280;75718;50.886;11.656;2024-01-16T00:24:38;97480.06;;;1.52;70.14
85315;BME280;75718;50.886;11.656;2024-01-16T00:27:04;97472.38;;;1.50;69.13
85315;BME280;75718;50.886;11.656;2024-01-16T00:29:29;97476.59;;;1.54;69.59
85315;BME280;75718;50.886;11.656;2024-01-16T00:31:55;97476.53;;;1.56;69.95
85315;BME280;75718;50.886;11.656;2024-01-16T00:34:20;97477.56;;;1.49;69.84
85315;BME280;75718;50.886;11.656;2024-01-16T00:36:46;97473.13;;;1.55;69.51
85315;BME280;75718;50.886;11.656;2024-01-16T00:39:11;97481.69;;;1.56;68.93
85315;BME280;75718;50.886;11.656;2024-01-16T00:41:36;97466.88;;;1.64;68.20
85315;BME280;75718;50.886;11.656;2024-01-16T00:44:02;97479.72;;;1.68;67.96
85315;BME280;75718;50.886;11.656;2024-01-16T00:46:28;97481.53;;;1.63;69.10
85315;BME280;75718;50.886;11.656;2024-01-16T00:48:53;97479.13;;;1.56;69.31
85315;BME280;75718;50.886;11.656;2024-01-16T00:51:18;97490.28;;;1.56;68.88
85315;BME280;75718;50.886;11.656;2024-01-16T00:53:44;97479.78;;;1.64;67.47
85315;BME280;75718;50.886;11.656;2024-01-16T00:56:10;97482.41;;;1.62;68.46
85315;BME280;75718;50.886;11.656;2024-01-16T00:58:35;97476.41;;;1.60;69.06
85315;BME280;75718;50.886;11.656;2024-01-16T01:01:01;97485.06;;;1.59;69.91
85315;BME280;75718;50.886;11.656;2024-01-16T01:03:26;97487.59;;;1.62;68.55
85315;BME280;75718;50.886;11.656;2024-01-16T01:05:51;97478.09;;;1.63;68.28
85315;BME280;75718;50.886;11.656;2024-01-16T01:08:17;97505.50;;;1.70;68.24
85315;BME280;75718;50.886;11.656;2024-01-16T01:10:42;97495.91;;;1.75;67.29
85315;BME280;75718;50.886;11.656;2024-01-16T01:13:07;97502.00;;;1.72;68.19
85315;BME280;75718;50.886;11.656;2024-01-16T01:15:32;97490.75;;;1.73;67.93
85315;BME280;75718;50.886;11.656;2024-01-16T01:17:58;97509.66;;;1.75;68.96
85315;BME280;75718;50.886;11.656;2024-01-16T01:20:23;97507.91;;;1.76;68.03
85315;BME280;75718;50.886;11.656;2024-01-16T01:22:48;97506.25;;;1.73;67.58
85315;BME280;75718;50.886;11.656;2024-01-16T01:25:14;97510.63;;;1.71;67.77
85315;BME280;75718;50.886;11.656;2024-01-16T01:27:39;97514.88;;;1.74;67.83
85315;BME280;75718;50.886;11.656;2024-01-16T01:30:09;97513.19;;;1.71;67.69
85315;BME280;75718;50.886;11.656;2024-01-16T01:32:38;97510.59;;;1.73;67.66
85315;BME280;75718;50.886;11.656;2024-01-16T01:35:04;97523.50;;;1.73;67.87
85315;BME280;75718;50.886;11.656;2024-01-16T01:37:30;97521.03;;;1.68;68.83
85315;BME280;75718;50.886;11.656;2024-01-16T01:39:55;97528.81;;;1.65;68.97
85315;BME280;75718;50.886;11.656;2024-01-16T01:42:20;97532.19;;;1.69;69.17
85315;BME280;75718;50.886;11.656;2024-01-16T01:44:45;97526.16;;;1.70;68.24
85315;BME280;75718;50.886;11.656;2024-01-16T01:47:11;97526.16;;;1.70;69.02
85315;BME280;75718;50.886;11.656;2024-01-16T01:49:37;97527.03;;;1.69;69.33
85315;BME280;75718;50.886;11.656;2024-01-16T01:52:03;97533.06;;;1.68;69.29
85315;BME280;75718;50.886;11.656;2024-01-16T01:54:30;97527.00;;;1.70;69.38
85315;BME280;75718;50.886;11.656;2024-01-16T01:56:57;97537.31;;;1.70;69.17
85315;BME280;75718;50.886;11.656;2024-01-16T01:59:23;97553.75;;;1.66;69.24
85315;BME280;75718;50.886;11.656;2024-01-16T02:01:51;97552.78;;;1.72;69.08
85315;BME280;75718;50.886;11.656;2024-01-16T02:04:19;97566.38;;;1.81;68.16
85315;BME280;75718;50.886;11.656;2024-01-16T02:06:45;97550.78;;;1.84;67.97
85315;BME280;75718;50.886;11.656;2024-01-16T02:09:11;97561.84;;;1.90;67.31
85315;BME280;75718;50.886;11.656;2024-01-16T02:11:41;97578.28;;;1.86;67.69
85315;BME280;75718;50.886;11.656;2024-01-16T02:14:07;97580.91;;;1.85;68.08
85315;BME280;75718;50.886;11.656;2024-01-16T02:16:37;97591.19;;;1.86;67.03
85315;BME280;75718;50.886;11.656;2024-01-16T02:19:06;97576.69;;;1.81;68.32
85315;BME280;75718;50.886;11.656;2024-01-16T02:21:51;97602.34;;;1.88;67.20
85315;BME280;75718;50.886;11.656;2024-01-16T02:24:19;97583.41;;;1.88;67.15
85315;BME280;75718;50.886;11.656;2024-01-16T02:26:44;97594.63;;;1.87;67.36
85315;BME280;75718;50.886;11.656;2024-01-16T02:29:09;97599.88;;;1.84;68.05
85315;BME280;75718;50.886;11.656;2024-01-16T02:31:35;97603.25;;;1.87;67.81
85315;BME280;75718;50.886;11.656;2024-01-16T02:34:00;97608.28;;;1.92;67.31
85315;BME280;75718;50.886;11.656;2024-01-16T02:36:26;97617.75;;;1.93;67.99
85315;BME280;75718;50.886;11.656;2024-01-16T02:38:52;97606.66;;;1.88;68.11
85315;BME280;75718;50.886;11.656;2024-01-16T02:41:18;97614.34;;;1.92;67.36
85315;BME280;75718;50.886;11.656;2024-01-16T02:43:43;97624.78;;;1.86;68.23
85315;BME280;75718;50.886;11.656;2024-01-16T02:46:09;97618.72;;;1.89;67.77
85315;BME280;75718;50.886;11.656;2024-01-16T02:48:35;97627.44;;;1.83;68.51
85315;BME280;75718;50.886;11.656;2024-01-16T02:51:00;97621.38;;;1.86;69.11
85315;BME280;75718;50.886;11.656;2024-01-16T02:53:26;97633.56;;;1.78;70.85
85315;BME280;75718;50.886;11.656;2024-01-16T02:55:53;97639.81;;;1.67;72.27
85315;BME280;75718;50.886;11.656;2024-01-16T02:58:18;97639.84;;;1.65;72.16
85315;BME280;75718;50.886;11.656;2024-01-16T03:00:43;97641.47;;;1.71;70.70
85315;BME280;75718;50.886;11.656;2024-01-16T03:03:10;97652.75;;;1.65;71.80
85315;BME280;75718;50.886;11.656;2024-01-16T03:05:36;97631.19;;;1.68;70.83
85315;BME280;75718;50.886;11.656;2024-01-16T03:08:01;97640.72;;;1.66;71.35
85315;BME280;75718;50.886;11.656;2024-01-16T03:10:26;97647.72;;;1.58;71.57
85315;BME280;75718;50.886;11.656;2024-01-16T03:12:51;97645.91;;;1.64;69.79
85315;BME280;75718;50.886;11.656;2024-01-16T03:15:17;97644.19;;;1.65;70.13
85315;BME280;75718;50.886;11.656;2024-01-16T03:17:42;97647.72;;;1.58;70.55
85315;BME280;75718;50.886;11.656;2024-01-16T03:20:08;97656.13;;;1.69;69.24
85315;BME280;75718;50.886;11.656;2024-01-16T03:22:34;97646.78;;;1.63;69.16
85315;BME280;75718;50.886;11.656;2024-01-16T03:24:59;97651.84;;;1.68;68.12
85315;BME280;75718;50.886;11.656;2024-01-16T03:27:24;97662.31;;;1.60;69.33
85315;BME280;75718;50.886;11.656;2024-01-16T03:29:49;97670.31;;;1.48;70.87
85315;BME280;75718;50.886;11.656;2024-01-16T03:32:15;97678.16;;;1.42;70.64
85315;BME280;75718;50.886;11.656;2024-01-16T03:34:40;97684.22;;;1.41;71.14
85315;BME280;75718;50.886;11.656;2024-01-16T03:37:06;97700.47;;;1.45;70.97
85315;BME280;75718;50.886;11.656;2024-01-16T03:39:31;97687.47;;;1.51;71.22
85315;BME280;75718;50.886;11.656;2024-01-16T03:41:56;97686.56;;;1.53;70.72
85315;BME280;75718;50.886;11.656;2024-01-16T03:44:22;97687.44;;;1.52;71.77
85315;BME280;75718;50.886;11.656;2024-01-16T03:46:47;97684.84;;;1.52;71.53
85315;BME280;75718;50.886;11.656;2024-01-16T03:49:12;97676.31;;;1.50;71.76
85315;BME280;75718;50.886;11.656;2024-01-16T03:51:37;97682.41;;;1.45;71.82
85315;BME280;75718;50.886;11.656;2024-01-16T03:54:03;97683.31;;;1.42;71.90
85315;BME280;75718;50.886;11.656;2024-01-16T03:56:29;97689.56;;;1.31;72.07
85315;BME280;75718;50.886;11.656;2024-01-16T03:58:54;97691.28;;;1.30;71.97
85315;BME280;75718;50.886;11.656;2024-01-16T04:01:33;97699.91;;;1.31;72.45
85315;BME280;75718;50.886;11.656;2024-01-16T04:03:58;97694.69;;;1.32;71.74
85315;BME280;75718;50.886;11.656;2024-01-16T04:06:24;97698.09;;;1.34;72.13
85315;BME280;75718;50.886;11.656;2024-01-16T04:08:49;97701.44;;;1.39;71.48
85315;BME280;75718;50.886;11.656;2024-01-16T04:11:14;97694.53;;;1.41;71.95
85315;BME280;75718;50.886;11.656;2024-01-16T04:13:40;97698.84;;;1.41;71.50
85315;BME280;75718;50.886;11.656;2024-01-16T04:16:06;97713.44;;;1.42;71.08
85315;BME280;75718;50.886;11.656;2024-01-16T04:18:39;97702.50;;;1.28;72.01
85315;BME280;75718;50.886;11.656;2024-01-16T04:21:05;97711.06;;;1.31;70.43
85315;BME280;75718;50.886;11.656;2024-01-16T04:23:31;97714.56;;;1.27;71.48
85315;BME280;75718;50.886;11.656;2024-01-16T04:25:56;97721.72;;;1.12;71.68
85315;BME280;75718;50.886;11.656;2024-01-16T04:28:22;97726.94;;;1.09;71.43
85315;BME280;75718;50.886;11.656;2024-01-16T04:30:47;97727.66;;;1.17;71.26
85315;BME280;75718;50.886;11.656;2024-01-16T04:33:12;97729.28;;;1.22;71.75
85315;BME280;75718;50.886;11.656;2024-01-16T04:35:37;97714.66;;;1.21;72.32
85315;BME280;75718;50.886;11.656;2024-01-16T04:38:03;97727.88;;;1.02;74.33
85315;BME280;75718;50.886;11.656;2024-01-16T04:40:28;97727.34;;;0.84;74.78
85315;BME280;75718;50.886;11.656;2024-01-16T04:42:53;97736.13;;;0.71;74.30
85315;BME280;75718;50.886;11.656;2024-01-16T04:45:19;97746.59;;;0.60;75.07
85315;BME280;75718;50.886;11.656;2024-01-16T04:47:44;97749.28;;;0.53;75.14
85315;BME280;75718;50.886;11.656;2024-01-16T04:50:09;97749.03;;;0.68;74.46
85315;BME280;75718;50.886;11.656;2024-01-16T04:52:35;97748.16;;;0.69;73.86
85315;BME280;75718;50.886;11.656;2024-01-16T04:55:00;97749.81;;;0.73;73.90
85315;BME280;75718;50.886;11.656;2024-01-16T04:57:25;97745.47;;;0.78;73.01
85315;BME280;75718;50.886;11.656;2024-01-16T04:59:50;97746.13;;;0.92;71.63
85315;BME280;75718;50.886;11.656;2024-01-16T05:02:16;97754.72;;;0.91;72.28
85315;BME280;75718;50.886;11.656;2024-01-16T05:04:42;97752.13;;;0.91;71.39
85315;BME280;75718;50.886;11.656;2024-01-16T05:07:07;97753.19;;;0.81;72.30
85315;BME280;75718;50.886;11.656;2024-01-16T05:09:33;97760.25;;;0.67;72.54
85315;BME280;75718;50.886;11.656;2024-01-16T05:11:58;97745.63;;;0.67;71.83
85315;BME280;75718;50.886;11.656;2024-01-16T05:14:23;97755.13;;;0.64;71.86
85315;BME280;75718;50.886;11.656;2024-01-16T05:16:50;97756.16;;;0.51;72.19
85315;BME280;75718;50.886;11.656;2024-01-16T05:19:16;97766.66;;;0.38;73.01
85315;BME280;75718;50.886;11.656;2024-01-16T05:21:41;97769.34;;;0.29;73.28
85315;BME280;75718;50.886;11.656;2024-01-16T05:24:07;97780.53;;;0.26;72.80
85315;BME280;75718;50.886;11.656;2024-01-16T05:26:33;97772.03;;;0.20;72.98
85315;BME280;75718;50.886;11.656;2024-01-16T05:28:58;97780.81;;;0.05;73.68
85315;BME280;75718;50.886;11.656;2024-01-16T05:31:23;97769.44;;;0.21;73.00
85315;BME280;75718;50.886;11.656;2024-01-16T05:33:49;97780.56;;;0.25;73.22
85315;BME280;75718;50.886;11.656;2024-01-16T05:36:14;97777.22;;;0.15;73.28
85315;BME280;75718;50.886;11.656;2024-01-16T05:38:39;97781.50;;;0.16;73.00
85315;BME280;75718;50.886;11.656;2024-01-16T05:41:04;97791.06;;;0.08;73.59
85315;BME280;75718;50.886;11.656;2024-01-16T05:43:30;97796.25;;;0.02;74.81
85315;BME280;75718;50.886;11.656;2024-01-16T05:45:55;97796.16;;;0.13;73.65
85315;BME280;75718;50.886;11.656;2024-01-16T05:48:20;97798.81;;;0.05;74.32
85315;BME280;75718;50.886;11.656;2024-01-16T05:50:45;97805.75;;;0.00;75.34
85315;BME280;75718;50.886;11.656;2024-01-16T05:53:11;97802.31;;;-0.02;75.03
85315;BME280;75718;50.886;11.656;2024-01-16T05:55:36;97804.00;;;0.02;75.04
85315;BME280;75718;50.886;11.656;2024-01-16T05:58:02;97804.97;;;-0.06;75.29
85315;BME280;75718;50.886;11.656;2024-01-16T06:00:27;97799.75;;;-0.03;75.39
85315;BME280;75718;50.886;11.656;2024-01-16T06:02:53;97814.34;;;-0.01;75.13
85315;BME280;75718;50.886;11.656;2024-01-16T06:05:18;97798.94;;;-0.06;75.81
85315;BME280;75718;50.886;11.656;2024-01-16T06:07:43;97799.75;;;-0.03;76.06
85315;BME280;75718;50.886;11.656;2024-01-16T06:10:11;97797.94;;;0.08;75.30
85315;BME280;75718;50.886;11.656;2024-01-16T06:12:36;97799.66;;;0.06;75.42
85315;BME280;75718;50.886;11.656;2024-01-16T06:15:02;97806.75;;;-0.12;76.28
85315;BME280;75718;50.886;11.656;2024-01-16T06:17:27;97803.31;;;-0.11;76.34
85315;BME280;75718;50.886;11.656;2024-01-16T06:19:53;97804.31;;;-0.27;76.70
85315;BME280;75718;50.886;11.656;2024-01-16T06:22:18;97801.84;;;-0.38;77.31
85315;BME280;75718;50.886;11.656;2024-01-16T06:24:43;97802.53;;;-0.18;75.57
85315;BME280;75718;50.886;11.656;2024-01-16T06:27:08;97800.84;;;-0.25;75.74
85315;BME280;75718;50.886;11.656;2024-01-16T06:29:34;97805.13;;;-0.24;75.60
85315;BME280;75718;50.886;11.656;2024-01-16T06:31:59;97802.78;;;-0.46;76.84
85315;BME280;75718;50.886;11.656;2024-01-16T06:34:25;97808.91;;;-0.58;77.21
85315;BME280;75718;50.886;11.656;2024-01-16T06:36:50;97813.09;;;-0.46;76.87
85315;BME280;75718;50.886;11.656;2024-01-16T06:39:15;97823.50;;;-0.61;77.12
85315;BME280;75718;50.886;11.656;2024-01-16T06:41:41;97818.28;;;-0.57;77.02
85315;BME280;75718;50.886;11.656;2024-01-16T06:44:06;97822.00;;;-0.86;77.66
85315;BME280;75718;50.886;11.656;2024-01-16T06:46:32;97822.09;;;-1.07;78.71
85315;BME280;75718;50.886;11.656;2024-01-16T06:48:57;97826.31;;;-0.92;78.87
85315;BME280;75718;50.886;11.656;2024-01-16T06:51:22;97832.38;;;-1.07;78.88
85315;BME280;75718;50.886;11.656;2024-01-16T06:53:47;97836.75;;;-1.22;79.46
85315;BME280;75718;50.886;11.656;2024-01-16T06:56:14;97839.38;;;-1.28;79.76
85315;BME280;75718;50.886;11.656;2024-01-16T06:58:39;97841.88;;;-1.16;79.65
85315;BME280;75718;50.886;11.656;2024-01-16T07:01:04;97851.25;;;-1.06;78.82
85315;BME280;75718;50.886;11.656;2024-01-16T07:03:30;97852.97;;;-1.05;78.86
85315;BME280;75718;50.886;11.656;2024-01-16T07:05:55;97849.50;;;-1.03;78.64
85315;BME280;75718;50.886;11.656;2024-01-16T07:08:20;97857.25;;;-1.07;79.01
85315;BME280;75718;50.886;11.656;2024-01-16T07:10:45;97857.28;;;-1.10;78.67
85315;BME280;75718;50.886;11.656;2024-01-16T07:13:11;97871.06;;;-1.23;79.23
85315;BME280;75718;50.886;11.656;2024-01-16T07:15:37;97870.25;;;-1.40;80.39
85315;BME280;75718;50.886;11.656;2024-01-16T07:18:03;97868.59;;;-1.48;80.15
85315;BME280;75718;50.886;11.656;2024-01-16T07:20:28;97882.16;;;-1.18;79.61
85315;BME280;75718;50.886;11.656;2024-01-16T07:22:53;97881.31;;;-1.24;79.48
85315;BME280;75718;50.886;11.656;2024-01-16T07:25:18;97885.69;;;-1.35;80.31
85315;BME280;75718;50.886;11.656;2024-01-16T07:27:44;97888.34;;;-1.58;81.36
85315;BME280;75718;50.886;11.656;2024-01-16T07:30:12;97889.03;;;-1.26;79.81
85315;BME280;75718;50.886;11.656;2024-01-16T07:32:37;97882.94;;;-1.01;78.40
85315;BME280;75718;50.886;11.656;2024-01-16T07:35:02;97887.97;;;-0.85;78.62
85315;BME280;75718;50.886;11.656;2024-01-16T07:37:28;97881.97;;;-0.85;78.70
85315;BME280;75718;50.886;11.656;2024-01-16T07:39:53;97884.53;;;-0.84;78.50
85315;BME280;75718;50.886;11.656;2024-01-16T07:42:18;97894.00;;;-0.92;78.72
85315;BME280;75718;50.886;11.656;2024-01-16T07:44:44;97889.72;;;-0.88;79.50
85315;BME280;75718;50.886;11.656;2024-01-16T07:47:09;97885.44;;;-0.89;78.92
85315;BME280;75718;50.886;11.656;2024-01-16T07:49:34;97896.53;;;-0.83;78.76
85315;BME280;75718;50.886;11.656;2024-01-16T07:52:00;97898.16;;;-0.68;78.26
85315;BME280;75718;50.886;11.656;2024-01-16T07:54:25;97897.28;;;-0.66;77.95
85315;BME280;75718;50.886;11.656;2024-01-16T07:56:51;97898.06;;;-0.58;77.76
85315;BME280;75718;50.886;11.656;2024-01-16T07:59:16;97891.97;;;-0.42;75.77
85315;BME280;75718;50.886;11.656;2024-01-16T08:01:42;97898.75;;;-0.31;76.27
85315;BME280;75718;50.886;11.656;2024-01-16T08:04:07;97907.34;;;-0.36;76.83
85315;BME280;75718;50.886;11.656;2024-01-16T08:06:33;97901.16;;;-0.11;74.60
85315;BME280;75718;50.886;11.656;2024-01-16T08:08:59;97889.88;;;-0.02;74.34
85315;BME280;75718;50.886;11.656;2024-01-16T08:11:24;97894.00;;;0.16;73.62
85315;BME280;75718;50.886;11.656;2024-01-16T08:13:50;97898.19;;;0.27;72.40
85315;BME280;75718;50.886;11.656;2024-01-16T08:16:15;97889.59;;;0.28;73.55
85315;BME280;75718;50.886;11.656;2024-01-16T08:18:40;97889.50;;;0.34;72.26
85315;BME280;75718;50.886;11.656;2024-01-16T08:21:06;97883.59;;;0.26;72.88
85315;BME280;75718;50.886;11.656;2024-01-16T08:23:32;97890.56;;;0.18;72.29
85315;BME280;75718;50.886;11.656;2024-01-16T08:25:58;97894.06;;;0.13;73.05
85315;BME280;75718;50.886;11.656;2024-01-16T08:28:23;97888.06;;;0.09;73.40
85315;BME280;75718;50.886;11.656;2024-01-16T08:30:49;97889.03;;;-0.02;73.29
85315;BME280;75718;50.886;11.656;2024-01-16T08:33:15;97888.19;;;-0.05;73.15
85315;BME280;75718;50.886;11.656;2024-01-16T08:35:40;97884.75;;;-0.04;73.32
85315;BME280;75718;50.886;11.656;2024-01-16T08:38:05;97881.34;;;-0.08;73.77
85315;BME280;75718;50.886;11.656;2024-01-16T08:40:31;97890.75;;;-0.04;74.61
85315;BME280;75718;50.886;11.656;2024-01-16T08:42:56;97886.38;;;0.07;73.83
85315;BME280;75718;50.886;11.656;2024-01-16T08:45:22;97880.16;;;0.27;72.20
85315;BME280;75718;50.886;11.656;2024-01-16T08:47:47;97897.16;;;0.43;71.55
85315;BME280;75718;50.886;11.656;2024-01-16T08:50:13;97885.81;;;0.57;71.37
85315;BME280;75718;50.886;11.656;2024-01-16T08:52:38;97904.53;;;0.73;70.93
85315;BME280;75718;50.886;11.656;2024-01-16T08:55:04;97900.97;;;0.83;70.78
85315;BME280;75718;50.886;11.656;2024-01-16T08:57:29;97902.53;;;0.96;70.86
85315;BME280;75718;50.886;11.656;2024-01-16T08:59:54;97901.47;;;1.12;69.34
85315;BME280;75718;50.886;11.656;2024-01-16T09:02:20;97906.34;;;1.31;68.43
85315;BME280;75718;50.886;11.656;2024-01-16T09:04:45;97900.94;;;1.49;67.05
85315;BME280;75718;50.886;11.656;2024-01-16T09:07:12;97901.56;;;1.64;66.82
85315;BME280;75718;50.886;11.656;2024-01-16T09:09:40;97901.50;;;1.67;66.48
85315;BME280;75718;50.886;11.656;2024-01-16T09:12:06;97901.38;;;1.75;66.32
85315;BME280;75718;50.886;11.656;2024-01-16T09:14:32;97905.75;;;1.71;66.00
85315;BME280;75718;50.886;11.656;2024-01-16T09:16:58;97921.38;;;1.62;65.79
85315;BME280;75718;50.886;11.656;2024-01-16T09:19:23;97908.50;;;1.61;66.56
85315;BME280;75718;50.886;11.656;2024-01-16T09:21:49;97909.41;;;1.57;66.53
85315;BME280;75718;50.886;11.656;2024-01-16T09:24:14;97907.66;;;1.59;68.08
85315;BME280;75718;50.886;11.656;2024-01-16T09:26:39;97908.38;;;1.68;66.55
85315;BME280;75718;50.886;11.656;2024-01-16T09:29:04;97905.69;;;1.74;65.59
85315;BME280;75718;50.886;11.656;2024-01-16T09:31:30;97907.97;;;1.92;65.58
85315;BME280;75718;50.886;11.656;2024-01-16T09:33:55;97901.38;;;2.24;65.26
85315;BME280;75718;50.886;11.656;2024-01-16T09:36:20;97898.75;;;2.72;63.79
85315;BME280;75718;50.886;11.656;2024-01-16T09:38:46;97894.66;;;3.03;61.60
85315;BME280;75718;50.886;11.656;2024-01-16T09:41:11;97898.66;;;3.55;60.60
85315;BME280;75718;50.886;11.656;2024-01-16T09:43:36;97883.50;;;4.10;58.26
85315;BME280;75718;50.886;11.656;2024-01-16T09:46:04;97874.16;;;4.37;57.78
85315;BME280;75718;50.886;11.656;2024-01-16T09:48:31;97876.66;;;4.71;56.33
85315;BME280;75718;50.886;11.656;2024-01-16T09:50:57;97884.50;;;4.99;55.85
85315;BME280;75718;50.886;11.656;2024-01-16T09:53:22;97884.72;;;4.60;55.70
85315;BME280;75718;50.886;11.656;2024-01-16T09:55:49;97891.00;;;4.53;56.18
85315;BME280;75718;50.886;11.656;2024-01-16T09:58:15;97889.13;;;4.58;56.40
85315;BME280;75718;50.886;11.656;2024-01-16T10:00:43;97890.38;;;4.75;56.17
85315;BME280;75718;50.886;11.656;2024-01-16T10:03:11;97886.03;;;4.76;56.39
85315;BME280;75718;50.886;11.656;2024-01-16T10:05:40;97887.69;;;4.15;57.54
85315;BME280;75718;50.886;11.656;2024-01-16T10:08:06;97903.75;;;3.59;58.70
85315;BME280;75718;50.886;11.656;2024-01-16T10:10:33;97900.81;;;3.37;61.15
85315;BME280;75718;50.886;11.656;2024-01-16T10:12:58;97904.25;;;3.39;61.60
85315;BME280;75718;50.886;11.656;2024-01-16T10:15:24;97908.84;;;3.25;61.33
85315;BME280;75718;50.886;11.656;2024-01-16T10:17:49;97909.50;;;2.94;61.54
85315;BME280;75718;50.886;11.656;2024-01-16T10:20:15;97908.84;;;2.84;62.78
85315;BME280;75718;50.886;11.656;2024-01-16T10:22:52;97914.13;;;2.78;62.53
85315;BME280;75718;50.886;11.656;2024-01-16T10:25:18;97912.69;;;2.64;63.01
85315;BME280;75718;50.886;11.656;2024-01-16T10:27:46;97904.28;;;2.54;63.53
85315;BME280;75718;50.886;11.656;2024-01-16T10:30:12;97910.22;;;2.59;64.26
85315;BME280;75718;50.886;11.656;2024-01-16T10:32:41;97894.59;;;2.64;63.80
85315;BME280;75718;50.886;11.656;2024-01-16T10:35:07;97900.47;;;2.72;63.09
85315;BME280;75718;50.886;11.656;2024-01-16T10:37:44;97900.97;;;2.90;62.84
85315;BME280;75718;50.886;11.656;2024-01-16T10:40:10;97898.84;;;3.08;62.45
85315;BME280;75718;50.886;11.656;2024-01-16T10:42:36;97895.03;;;3.26;61.82
85315;BME280;75718;50.886;11.656;2024-01-16T10:45:02;97884.81;;;3.20;60.95
85315;BME280;75718;50.886;11.656;2024-01-16T10:47:28;97893.72;;;3.07;61.33
85315;BME280;75718;50.886;11.656;2024-01-16T10:49:53;97891.38;;;2.95;61.31
85315;BME280;75718;50.886;11.656;2024-01-16T10:52:23;97893.22;;;2.90;61.09
85315;BME280;75718;50.886;11.656;2024-01-16T10:54:51;97891.78;;;2.74;61.72
85315;BME280;75718;50.886;11.656;2024-01-16T10:57:17;97910.00;;;2.70;62.08
85315;BME280;75718;50.886;11.656;2024-01-16T10:59:53;97893.00;;;2.57;62.21
85315;BME280;75718;50.886;11.656;2024-01-16T11:02:24;97898.22;;;2.55;63.38
85315;BME280;75718;50.886;11.656;2024-01-16T11:04:54;97893.06;;;2.55;62.17
85315;BME280;75718;50.886;11.656;2024-01-16T11:07:21;97895.47;;;2.64;62.73
85315;BME280;75718;50.886;11.656;2024-01-16T11:09:48;97903.22;;;2.64;63.35
85315;BME280;75718;50.886;11.656;2024-01-16T11:12:14;97899.09;;;2.54;63.87
85315;BME280;75718;50.886;11.656;2024-01-16T11:14:42;97894.88;;;2.50;64.79
85315;BME280;75718;50.886;11.656;2024-01-16T11:17:09;97908.66;;;2.49;63.42
85315;BME280;75718;50.886;11.656;2024-01-16T11:19:42;97906.06;;;2.51;64.24
85315;BME280;75718;50.886;11.656;2024-01-16T11:22:08;97904.34;;;2.50;63.43
85315;BME280;75718;50.886;11.656;2024-01-16T11:24:33;97905.03;;;2.59;64.04
85315;BME280;75718;50.886;11.656;2024-01-16T11:26:58;97898.75;;;2.72;63.38
85315;BME280;75718;50.886;11.656;2024-01-16T11:31:51;97902.66;;;2.93;63.44
85315;BME280;75718;50.886;11.656;2024-01-16T11:37:15;97904.50;;;2.86;63.39
85315;BME280;75718;50.886;11.656;2024-01-16T11:39:40;97901.09;;;2.84;64.45
85315;BME280;75718;50.886;11.656;2024-01-16T11:42:06;97894.16;;;2.86;63.07
85315;BME280;75718;50.886;11.656;2024-01-16T11:47:09;97882.31;;;2.75;64.67
85315;BME280;75718;50.886;11.656;2024-01-16T11:49:39;97890.84;;;2.78;63.96
85315;BME280;75718;50.886;11.656;2024-01-16T11:52:05;97892.47;;;2.84;64.51
85315;BME280;75718;50.886;11.656;2024-01-16T11:54:32;97884.38;;;2.98;63.97
85315;BME280;75718;50.886;11.656;2024-01-16T11:59:59;97887.19;;;3.29;63.20
85315;BME280;75718;50.886;11.656;2024-01-16T12:02:46;97878.53;;;3.30;61.67
85315;BME280;75718;50.886;11.656;2024-01-16T12:05:14;97877.72;;;3.28;62.08
85315;BME280;75718;50.886;11.656;2024-01-16T12:07:44;97878.69;;;3.22;61.99
85315;BME280;75718;50.886;11.656;2024-01-16T12:10:10;97874.31;;;3.26;61.92
85315;BME280;75718;50.886;11.656;2024-01-16T12:12:35;97873.38;;;3.30;61.69
85315;BME280;75718;50.886;11.656;2024-01-16T12:15:00;97870.81;;;3.27;60.76
85315;BME280;75718;50.886;11.656;2024-01-16T12:17:26;97866.59;;;3.23;61.46
85315;BME280;75718;50.886;11.656;2024-01-16T12:19:51;97860.75;;;3.15;61.26
85315;BME280;75718;50.886;11.656;2024-01-16T12:22:16;97842.06;;;3.01;60.82
85315;BME280;75718;50.886;11.656;2024-01-16T12:24:43;97851.66;;;2.97;60.98
85315;BME280;75718;50.886;11.656;2024-01-16T12:27:10;97853.53;;;2.90;61.71
85315;BME280;75718;50.886;11.656;2024-01-16T12:29:35;97845.00;;;2.85;62.52
85315;BME280;75718;50.886;11.656;2024-01-16T12:32:11;97847.59;;;2.86;62.39
85315;BME280;75718;50.886;11.656;2024-01-16T12:34:47;97849.25;;;2.89;62.54
85315;BME280;75718;50.886;11.656;2024-01-16T12:37:13;97840.59;;;2.91;62.88
85315;BME280;75718;50.886;11.656;2024-01-16T12:39:38;97840.66;;;2.87;62.52
85315;BME280;75718;50.886;11.656;2024-01-16T12:42:06;97837.22;;;2.86;62.21
85315;BME280;75718;50.886;11.656;2024-01-16T12:44:31;97840.78;;;2.82;62.37
85315;BME280;75718;50.886;11.656;2024-01-16T12:46:57;97845.16;;;2.79;62.08
85315;BME280;75718;50.886;11.656;2024-01-16T12:49:23;97841.69;;;2.78;62.85
85315;BME280;75718;50.886;11.656;2024-01-16T12:51:49;97836.56;;;2.77;62.00
85315;BME280;75718;50.886;11.656;2024-01-16T12:54:18;97839.94;;;2.80;63.34
85315;BME280;75718;50.886;11.656;2024-01-16T12:56:44;97838.38;;;2.73;62.38
85315;BME280;75718;50.886;11.656;2024-01-16T12:59:11;97840.03;;;2.76;61.57
85315;BME280;75718;50.886;11.656;2024-01-16T13:01:42;97846.16;;;2.70;61.89